Time;durP1;ratioP1;P1;durP2;ratioP2;P2;SDS_P1;SDS_P2;PMS_P1;PMS_P2;Temp;Humidity;BMP_temperature;BMP_pressure;BME280_temperature;BME280_humidity;BME280_pressure;Samples;Min_cycle;Max_cycle;Signal;HPM_P1;HPM_P2
2023/07/23 00:01:22;;;;;;;24.58;10.65;;;;;;;26.20;55.07;101018.75;4950191;28;20165;-79
2023/07/23 00:03:54;;;;;;;21.63;10.48;;;;;;;26.32;59.53;100983.44;4952092;28;20043;-78
2023/07/23 00:06:29;;;;;;;24.95;9.23;;;;;;;26.52;54.01;101003.00;4961813;28;20065;-82
2023/07/23 00:08:59;;;;;;;19.02;9.00;;;;;;;26.47;52.44;101013.75;4969680;28;20077;-80
2023/07/23 00:11:25;;;;;;;17.55;9.05;;;;;;;26.53;54.21;101012.88;4937411;28;20078;-79
2023/07/23 00:13:55;;;;;;;15.95;8.57;;;;;;;26.41;51.83;101001.91;4909245;28;20058;-81
2023/07/23 00:16:24;;;;;;;17.38;9.88;;;;;;;26.33;52.79;101012.28;4931398;28;20061;-78
2023/07/23 00:18:50;;;;;;;18.70;8.73;;;;;;;25.92;52.78;100987.50;4939290;28;20114;-80
2023/07/23 00:21:21;;;;;;;17.50;8.93;;;;;;;25.94;53.55;101011.75;4939749;28;20085;-81
2023/07/23 00:23:50;;;;;;;15.10;9.07;;;;;;;25.53;53.28;100965.13;4948735;28;20136;-81
2023/07/23 00:26:17;;;;;;;18.00;9.35;;;;;;;25.56;53.86;100986.44;4935485;28;20076;-82
2023/07/23 00:28:48;;;;;;;13.98;8.65;;;;;;;25.46;53.62;100982.59;4924229;28;20050;-79
2023/07/23 00:31:15;;;;;;;24.40;9.27;;;;;;;25.46;54.02;100996.16;4955749;28;20489;-79
2023/07/23 00:33:41;;;;;;;16.45;8.68;;;;;;;25.29;54.29;100980.47;4952749;28;20042;-81
2023/07/23 00:36:09;;;;;;;20.25;10.07;;;;;;;25.22;54.58;100977.00;4943145;28;20437;-80
2023/07/23 00:38:39;;;;;;;17.02;10.00;;;;;;;25.16;54.86;100970.53;4955755;28;20058;-82
2023/07/23 00:41:07;;;;;;;17.88;8.82;;;;;;;25.41;55.87;100993.31;4941950;28;20061;-80
2023/07/23 00:43:34;;;;;;;20.73;9.30;;;;;;;25.55;54.55;100990.22;4935838;28;20055;-79
2023/07/23 00:46:01;;;;;;;18.30;8.73;;;;;;;25.63;52.94;100980.91;4938664;28;20617;-80
2023/07/23 00:48:30;;;;;;;16.40;8.23;;;;;;;25.56;52.36;100983.72;4937525;28;22070;-80
2023/07/23 00:50:57;;;;;;;30.45;10.02;;;;;;;25.52;53.46;100985.22;4917796;28;20141;-81
2023/07/23 00:53:25;;;;;;;24.42;10.40;;;;;;;25.35;53.89;100968.69;4926246;28;20451;-79
2023/07/23 00:55:53;;;;;;;17.15;9.85;;;;;;;25.46;54.36;100997.00;4939952;28;20062;-79
2023/07/23 00:58:22;;;;;;;21.30;11.30;;;;;;;25.29;55.67;100964.19;4963312;28;20304;-80
2023/07/23 01:00:50;;;;;;;25.15;12.25;;;;;;;25.43;56.95;100991.19;4955156;28;20049;-80
2023/07/23 01:03:20;;;;;;;26.73;13.93;;;;;;;25.28;58.48;100981.50;4957329;28;20054;-80
2023/07/23 01:05:50;;;;;;;28.55;13.48;;;;;;;25.11;59.82;100988.56;4952956;28;20070;-80
2023/07/23 01:08:19;;;;;;;30.63;16.50;;;;;;;24.60;61.48;100913.59;4964601;28;20046;-81
2023/07/23 01:10:47;;;;;;;30.05;15.65;;;;;;;24.97;62.58;100993.25;4969976;28;20054;-79
2023/07/23 01:13:15;;;;;;;37.70;16.80;;;;;;;24.90;63.24;100993.34;4950397;28;20058;-81
2023/07/23 01:15:42;;;;;;;27.02;15.90;;;;;;;24.51;63.88;100951.84;4933869;28;20054;-79
2023/07/23 01:18:11;;;;;;;24.88;15.82;;;;;;;24.76;64.07;101013.50;4947832;28;20344;-80
2023/07/23 01:20:39;;;;;;;35.33;16.40;;;;;;;24.31;65.08;100960.09;4940266;28;20046;-81
2023/07/23 01:23:06;;;;;;;32.72;17.63;;;;;;;24.64;65.11;101012.56;4959815;28;20566;-79
2023/07/23 01:25:33;;;;;;;26.98;15.40;;;;;;;24.31;65.68;100973.66;4932039;28;20049;-80
2023/07/23 01:28:00;;;;;;;33.13;16.17;;;;;;;24.42;66.18;101009.28;4935228;28;20133;-80
2023/07/23 01:30:29;;;;;;;29.98;17.23;;;;;;;24.41;66.40;101000.31;4940758;28;20466;-80
2023/07/23 01:33:00;;;;;;;30.08;17.00;;;;;;;24.48;66.74;101009.28;4963728;28;20046;-79
2023/07/23 01:35:27;;;;;;;32.88;16.45;;;;;;;24.45;66.57;101001.56;4961631;28;20101;-79
2023/07/23 01:37:55;;;;;;;28.65;15.70;;;;;;;24.27;67.13;100974.31;4959140;28;20042;-80
2023/07/23 01:40:22;;;;;;;30.23;16.52;;;;;;;23.99;67.25;100925.91;4949918;28;20548;-82
2023/07/23 01:42:48;;;;;;;33.67;16.52;;;;;;;24.41;67.84;100997.63;4945478;28;20486;-80
2023/07/23 01:45:15;;;;;;;38.65;18.42;;;;;;;24.39;68.19;100994.28;4950764;28;20345;-81
2023/07/23 01:47:42;;;;;;;28.55;16.40;;;;;;;24.34;68.35;100998.72;4962253;28;20043;-78
2023/07/23 01:50:09;;;;;;;38.38;19.38;;;;;;;24.25;68.38;100980.00;4908275;28;20446;-78
2023/07/23 01:52:41;;;;;;;27.88;15.48;;;;;;;24.10;68.35;100950.44;4896491;28;20134;-81
2023/07/23 01:55:08;;;;;;;38.42;16.65;;;;;;;23.88;67.38;100908.41;4927019;28;20086;-78
2023/07/23 01:57:35;;;;;;;28.80;16.08;;;;;;;24.29;66.82;100966.81;4948520;28;20434;-78
2023/07/23 02:00:03;;;;;;;26.65;15.40;;;;;;;24.60;65.38;101020.28;4951808;28;20087;-80
2023/07/23 02:02:30;;;;;;;27.63;13.95;;;;;;;24.59;64.03;101028.63;4967337;28;20719;-80
2023/07/23 02:04:57;;;;;;;18.20;12.15;;;;;;;24.45;62.76;101011.59;4971354;28;20358;-79
2023/07/23 02:07:24;;;;;;;21.85;12.15;;;;;;;24.56;62.12;101029.09;4979416;28;20466;-78
2023/07/23 02:09:51;;;;;;;23.30;12.48;;;;;;;24.40;61.46;101014.97;4946029;28;20054;-77
2023/07/23 02:12:18;;;;;;;28.67;12.50;;;;;;;24.49;60.86;101040.81;4923589;28;20491;-79
2023/07/23 02:14:48;;;;;;;21.25;11.27;;;;;;;24.47;60.30;101031.25;4922729;28;20050;-78
2023/07/23 02:17:14;;;;;;;21.88;12.18;;;;;;;24.46;60.42;101046.66;4910998;28;20573;-79
2023/07/23 02:19:41;;;;;;;22.50;10.63;;;;;;;24.43;59.54;101035.41;4911835;28;20043;-80
2023/07/23 02:22:08;;;;;;;18.30;10.65;;;;;;;24.36;58.95;101024.56;4916163;28;20051;-80
2023/07/23 02:24:37;;;;;;;16.88;9.95;;;;;;;24.40;57.46;101028.53;4925761;28;20149;-80
2023/07/23 02:27:07;;;;;;;19.70;10.20;;;;;;;24.55;56.32;101049.13;4936079;28;20054;-80
2023/07/23 02:29:34;;;;;;;21.83;9.80;;;;;;;24.53;56.93;101039.31;4939235;28;20240;-80
2023/07/23 02:32:02;;;;;;;17.60;9.60;;;;;;;24.61;55.48;101037.41;4938840;28;20101;-81
2023/07/23 02:34:29;;;;;;;22.08;10.38;;;;;;;24.63;54.13;101035.28;4959333;28;20081;-80
2023/07/23 02:37:02;;;;;;;17.65;8.70;;;;;;;24.67;53.63;101055.53;4958303;28;20046;-81
2023/07/23 02:39:30;;;;;;;16.17;8.48;;;;;;;24.56;53.45;101034.50;4943805;28;20081;-80
2023/07/23 02:41:57;;;;;;;19.63;9.05;;;;;;;24.60;53.48;101038.47;4957915;28;20078;-81
2023/07/23 02:44:24;;;;;;;15.55;9.52;;;;;;;24.35;53.08;101006.63;4953387;28;20277;-80
2023/07/23 02:46:52;;;;;;;15.55;9.05;;;;;;;24.44;52.78;101016.19;4965824;28;20364;-80
2023/07/23 02:49:18;;;;;;;20.55;10.30;;;;;;;24.18;52.65;100978.38;4947669;28;20187;-79
2023/07/23 02:51:45;;;;;;;25.23;9.55;;;;;;;24.51;53.03;101056.88;4913141;28;20061;-81
2023/07/23 02:54:12;;;;;;;15.25;9.13;;;;;;;24.29;52.61;101029.19;4942687;28;20657;-81
2023/07/23 02:56:39;;;;;;;17.80;8.77;;;;;;;24.22;52.73;101009.41;4925505;28;20135;-81
2023/07/23 02:59:06;;;;;;;13.23;7.82;;;;;;;24.37;52.29;101034.41;4932458;28;20288;-81
2023/07/23 03:01:33;;;;;;;21.67;9.02;;;;;;;24.46;52.64;101057.53;4947225;28;20065;-81
2023/07/23 03:04:00;;;;;;;19.27;9.88;;;;;;;23.96;52.69;100975.97;4971375;28;20201;-81
2023/07/23 03:06:26;;;;;;;17.38;8.10;;;;;;;24.22;52.75;101028.41;4956350;28;20168;-79
2023/07/23 03:08:54;;;;;;;20.33;10.55;;;;;;;24.39;52.75;101056.69;4941401;28;20078;-80
2023/07/23 03:11:24;;;;;;;18.67;9.15;;;;;;;24.50;52.94;101074.22;4935716;28;20105;-79
2023/07/23 03:13:52;;;;;;;24.13;10.35;;;;;;;24.32;52.23;101042.31;4944859;28;20105;-81
2023/07/23 03:16:18;;;;;;;21.17;9.50;;;;;;;24.26;52.98;101029.63;4934592;28;20166;-80
2023/07/23 03:18:45;;;;;;;27.98;9.57;;;;;;;24.37;52.39;101041.69;4935511;28;20046;-80
2023/07/23 03:21:12;;;;;;;22.45;9.23;;;;;;;24.47;52.38;101064.63;4939658;28;20046;-80
2023/07/23 03:23:42;;;;;;;18.58;8.98;;;;;;;24.38;52.75;101054.22;4948431;28;20054;-80
2023/07/23 03:26:09;;;;;;;19.85;9.48;;;;;;;24.31;52.55;101052.34;4948128;28;20570;-80
2023/07/23 03:28:35;;;;;;;18.73;10.10;;;;;;;24.43;52.82;101074.22;4944425;28;20050;-80
2023/07/23 03:31:03;;;;;;;22.58;9.43;;;;;;;24.23;52.41;101046.34;4965950;28;20418;-80
2023/07/23 03:33:29;;;;;;;15.40;9.35;;;;;;;24.25;52.94;101066.78;4950022;28;20045;-80
2023/07/23 03:35:58;;;;;;;17.58;9.38;;;;;;;24.06;53.56;101048.72;4931237;28;20061;-80
2023/07/23 03:38:25;;;;;;;18.80;9.30;;;;;;;24.33;53.53;101073.03;4929075;28;20117;-80
2023/07/23 03:40:51;;;;;;;18.80;9.57;;;;;;;24.31;53.79;101075.94;4936144;28;20122;-79
2023/07/23 03:43:18;;;;;;;20.05;9.57;;;;;;;24.24;55.10;101075.13;4927570;28;20085;-81
2023/07/23 03:45:50;;;;;;;20.13;9.25;;;;;;;24.23;53.75;101084.34;4921754;28;20126;-82
2023/07/23 03:48:17;;;;;;;17.58;9.48;;;;;;;24.29;53.17;101083.47;4952437;28;20560;-81
2023/07/23 03:50:44;;;;;;;17.98;9.18;;;;;;;23.99;53.17;101065.00;4952769;28;20061;-81
2023/07/23 03:53:10;;;;;;;21.75;9.38;;;;;;;24.18;52.99;101097.72;4942681;28;20054;-79
2023/07/23 03:55:39;;;;;;;16.33;8.82;;;;;;;24.04;53.15;101092.31;4924244;28;20058;-80
2023/07/23 03:58:09;;;;;;;23.02;9.45;;;;;;;23.95;53.25;101088.16;4920817;28;20356;-80
2023/07/23 04:00:38;;;;;;;17.60;9.70;;;;;;;23.83;52.50;101063.59;4946036;28;20367;-80
2023/07/23 04:03:05;;;;;;;17.83;8.90;;;;;;;23.98;52.18;101095.91;4944912;28;20437;-80
2023/07/23 04:05:34;;;;;;;16.58;9.13;;;;;;;23.98;52.33;101103.19;4940326;28;20438;-80
2023/07/23 04:08:04;;;;;;;18.52;9.10;;;;;;;23.97;51.32;101094.22;4950453;28;20252;-81
2023/07/23 04:10:31;;;;;;;17.35;9.40;;;;;;;23.95;51.60;101098.19;4944838;28;20249;-79
2023/07/23 04:12:58;;;;;;;16.23;9.32;;;;;;;23.85;52.10;101098.63;4934412;28;20050;-79
2023/07/23 04:15:24;;;;;;;16.90;8.82;;;;;;;23.71;51.92;101084.22;4955721;28;20137;-79
2023/07/23 04:17:51;;;;;;;19.73;9.90;;;;;;;23.61;52.27;101064.88;4949783;28;20650;-80
2023/07/23 04:20:18;;;;;;;19.10;8.93;;;;;;;23.77;52.11;101094.28;4962226;28;20104;-80
2023/07/23 04:22:49;;;;;;;15.60;8.90;;;;;;;23.74;52.67;101112.81;4933923;28;20390;-80
2023/07/23 04:25:16;;;;;;;13.43;8.35;;;;;;;23.22;52.88;101034.91;4956242;28;20046;-80
2023/07/23 04:27:51;;;;;;;15.88;9.05;;;;;;;23.66;53.07;101103.84;4951127;28;20062;-81
2023/07/23 04:30:21;;;;;;;13.15;8.52;;;;;;;23.55;53.29;101096.38;4938311;28;20422;-81
2023/07/23 04:32:51;;;;;;;21.52;9.75;;;;;;;23.66;52.85;101093.00;4942471;28;20250;-80
2023/07/23 04:35:17;;;;;;;16.38;9.20;;;;;;;23.64;53.16;101096.97;4960949;28;20073;-79
2023/07/23 04:37:44;;;;;;;18.83;9.95;;;;;;;23.80;53.17;101122.84;4968842;28;20193;-80
2023/07/23 04:40:11;;;;;;;17.52;9.85;;;;;;;23.41;53.29;101043.22;4946591;28;20053;-79
2023/07/23 04:42:38;;;;;;;14.82;9.40;;;;;;;23.52;53.17;101056.16;4944052;28;20470;-79
2023/07/23 04:45:05;;;;;;;19.90;9.07;;;;;;;23.94;52.97;101118.22;4951805;28;20050;-79
2023/07/23 04:47:38;;;;;;;21.05;9.85;;;;;;;23.46;53.34;101044.25;4926776;28;20051;-79
2023/07/23 04:50:05;;;;;;;21.25;10.13;;;;;;;23.71;52.98;101086.94;4956505;28;20054;-80
2023/07/23 04:52:38;;;;;;;20.10;9.88;;;;;;;23.83;53.01;101087.16;4959874;28;20490;-78
2023/07/23 04:55:08;;;;;;;19.90;10.93;;;;;;;23.99;52.87;101115.72;4941525;28;20050;-81
2023/07/23 04:57:35;;;;;;;22.42;10.52;;;;;;;23.63;52.96;101063.63;4966846;28;20310;-79
2023/07/23 05:00:06;;;;;;;19.83;11.00;;;;;;;23.96;52.56;101099.84;4941615;28;20156;-78
2023/07/23 05:02:37;;;;;;;21.75;10.70;;;;;;;24.08;52.72;101114.44;4974094;28;20055;-80
2023/07/23 05:05:04;;;;;;;23.25;10.75;;;;;;;23.98;52.92;101103.19;4923116;28;20074;-79
2023/07/23 05:07:34;;;;;;;18.10;10.13;;;;;;;23.99;53.03;101116.53;4937178;28;20057;-80
2023/07/23 05:10:03;;;;;;;22.55;10.75;;;;;;;23.99;53.21;101121.13;4955718;28;20054;-79
2023/07/23 05:12:30;;;;;;;22.02;9.40;;;;;;;23.96;53.20;101116.97;4962164;28;20637;-79
2023/07/23 05:15:10;;;;;;;18.27;9.93;;;;;;;23.89;53.34;101110.72;4942575;28;20046;-80
2023/07/23 05:17:41;;;;;;;19.20;9.73;;;;;;;23.97;55.09;101120.50;4950452;28;20050;-79
2023/07/23 05:20:09;;;;;;;30.55;12.65;;;;;;;23.52;53.94;101034.47;4949177;28;20739;-80
2023/07/23 05:22:40;;;;;;;25.42;11.10;;;;;;;24.17;53.39;101134.84;4962060;28;20421;-79
2023/07/23 05:25:07;;;;;;;20.00;10.07;;;;;;;24.12;53.34;101121.09;4949958;28;20050;-79
2023/07/23 05:27:34;;;;;;;24.35;11.48;;;;;;;24.22;53.35;101150.47;4956962;28;20134;-79
2023/07/23 05:30:03;;;;;;;18.83;10.13;;;;;;;24.24;53.41;101135.66;4946565;28;20521;-81
2023/07/23 05:32:31;;;;;;;17.40;9.65;;;;;;;24.16;53.66;101132.34;4946941;28;20141;-79
2023/07/23 05:34:58;;;;;;;21.08;11.35;;;;;;;24.24;53.91;101140.25;4947073;28;20046;-81
2023/07/23 05:37:25;;;;;;;27.48;12.48;;;;;;;24.29;54.41;101148.56;4946836;28;20050;-79
2023/07/23 05:39:53;;;;;;;27.83;13.23;;;;;;;23.96;55.13;101095.28;4946235;28;20057;-79
2023/07/23 05:42:20;;;;;;;24.10;14.98;;;;;;;24.32;56.02;101156.28;4949723;28;20065;-80
2023/07/23 05:44:48;;;;;;;29.88;14.43;;;;;;;24.18;57.67;101146.53;4932876;28;20066;-79
2023/07/23 05:47:16;;;;;;;36.45;15.48;;;;;;;24.24;58.23;101151.91;4951651;28;20050;-79
2023/07/23 05:49:46;;;;;;;38.83;17.75;;;;;;;24.08;59.90;101131.53;4955281;28;20125;-80
2023/07/23 05:52:13;;;;;;;40.53;20.00;;;;;;;24.01;61.85;101119.88;4935413;28;20065;-79
2023/07/23 05:54:40;;;;;;;40.70;17.55;;;;;;;24.17;61.73;101150.28;4951241;28;20459;-79
2023/07/23 05:57:07;;;;;;;32.78;16.30;;;;;;;24.02;61.20;101113.38;4935703;28;20473;-78
2023/07/23 05:59:34;;;;;;;36.20;16.17;;;;;;;24.19;61.25;101137.34;4939706;28;20553;-79
2023/07/23 06:02:01;;;;;;;34.05;17.10;;;;;;;24.10;61.93;101134.03;4939363;28;20069;-79
2023/07/23 06:04:28;;;;;;;35.60;15.52;;;;;;;24.15;61.56;101136.09;4940594;28;20090;-78
2023/07/23 06:06:56;;;;;;;37.08;16.52;;;;;;;24.06;62.24;101122.78;4942324;28;20486;-79
2023/07/23 06:09:23;;;;;;;41.45;17.48;;;;;;;24.10;63.09;101126.75;4940209;28;20101;-77
2023/07/23 06:11:51;;;;;;;37.38;18.05;;;;;;;24.41;63.78;101163.13;4944363;28;20097;-78
2023/07/23 06:14:20;;;;;;;43.30;19.23;;;;;;;24.42;64.27;101162.09;4947796;28;20051;-79
2023/07/23 06:16:49;;;;;;;41.90;19.88;;;;;;;24.52;64.98;101165.22;4937804;28;20053;-79
2023/07/23 06:19:15;;;;;;;36.88;18.20;;;;;;;24.14;64.60;101100.00;4950713;28;20137;-79
2023/07/23 06:21:44;;;;;;;45.80;21.80;;;;;;;24.57;66.01;101169.19;4949257;28;20060;-79
2023/07/23 06:24:11;;;;;;;46.38;21.85;;;;;;;24.76;66.33;101183.69;4949318;28;20051;-78
2023/07/23 06:26:38;;;;;;;43.25;21.63;;;;;;;24.41;66.74;101135.19;4956865;28;20050;-78
2023/07/23 06:29:05;;;;;;;48.50;22.33;;;;;;;24.79;66.59;101186.81;4967814;28;20081;-76
2023/07/23 06:31:34;;;;;;;44.60;20.77;;;;;;;24.84;66.15;101189.72;4961369;28;20060;-78
2023/07/23 06:34:01;;;;;;;42.10;20.60;;;;;;;24.37;66.28;101112.22;4977865;28;20501;-78
2023/07/23 06:36:31;;;;;;;46.42;21.27;;;;;;;25.03;66.39;101197.97;4962194;28;20077;-79
2023/07/23 06:38:58;;;;;;;39.40;22.90;;;;;;;24.97;66.08;101177.13;4959043;28;20524;-79
2023/07/23 06:41:27;;;;;;;48.05;22.95;;;;;;;25.01;66.37;101194.66;4945699;28;20050;-78
2023/07/23 06:43:54;;;;;;;42.38;23.55;;;;;;;24.84;67.40;101154.41;4963602;28;20053;-78
2023/07/23 06:46:21;;;;;;;54.25;28.20;;;;;;;25.06;68.05;101175.81;4964708;28;20136;-79
2023/07/23 06:48:48;;;;;;;35.25;19.35;;;;;;;24.95;67.47;101178.19;4962422;28;20051;-78
2023/07/23 06:51:15;;;;;;;47.83;24.15;;;;;;;25.07;67.89;101188.34;4943558;28;20055;-80
2023/07/23 06:53:45;;;;;;;45.60;21.80;;;;;;;25.15;67.71;101185.38;4937549;28;20135;-78
2023/07/23 06:56:16;;;;;;;57.15;26.95;;;;;;;24.78;67.85;101095.53;4964680;28;20388;-81
2023/07/23 06:58:42;;;;;;;;;;;;;;;25.40;68.91;101187.31;4939452;28;20054;-80
2023/07/23 07:01:09;;;;;;;55.03;28.40;;;;;;;24.85;68.45;101103.66;4951869;28;19926;-79
2023/07/23 07:03:36;;;;;;;50.65;27.17;;;;;;;25.40;68.58;101198.19;4939087;28;20055;-80
2023/07/23 07:06:06;;;;;;;54.17;26.02;;;;;;;25.35;68.83;101201.56;4939165;28;20217;-79
2023/07/23 07:08:33;;;;;;;47.80;23.58;;;;;;;25.35;69.02;101204.28;4955868;28;20054;-79
2023/07/23 07:11:02;;;;;;;49.83;26.20;;;;;;;25.23;69.05;101168.81;4950621;28;20045;-80
2023/07/23 07:13:32;;;;;;;49.60;26.30;;;;;;;25.46;69.42;101213.59;4981578;28;20053;-80
2023/07/23 07:16:03;;;;;;;44.42;22.10;;;;;;;25.47;69.34;101199.81;4961430;28;20724;-82
2023/07/23 07:18:29;;;;;;;55.97;27.48;;;;;;;25.54;70.04;101210.63;4957476;28;20109;-81
2023/07/23 07:20:58;;;;;;;55.90;27.00;;;;;;;25.23;70.43;101174.25;4953743;28;20404;-80
2023/07/23 07:23:30;;;;;;;47.55;24.40;;;;;;;25.37;70.25;101200.28;4948392;28;20046;-80
2023/07/23 07:25:58;;;;;;;51.00;25.50;;;;;;;25.15;70.42;101152.78;4929694;28;20124;-78
2023/07/23 07:28:26;;;;;;;55.92;28.23;;;;;;;25.22;69.71;101153.59;4939571;28;20052;-80
2023/07/23 07:30:57;;;;;;;52.80;25.60;;;;;;;24.97;69.63;101096.47;4983018;28;20096;-79
2023/07/23 07:33:24;;;;;;;60.22;31.02;;;;;;;25.28;69.48;101139.09;4964787;28;20053;-80
2023/07/23 07:35:58;;;;;;;43.15;21.25;;;;;;;25.73;69.05;101196.03;4968970;28;20049;-78
2023/07/23 07:38:26;;;;;;;50.47;27.40;;;;;;;25.97;68.40;101215.28;4963106;28;20133;-81
2023/07/23 07:40:56;;;;;;;55.63;28.83;;;;;;;26.08;68.36;101217.28;4940476;28;20109;-79
2023/07/23 07:43:22;;;;;;;56.47;26.98;;;;;;;26.05;68.32;101217.75;4956581;28;20093;-80
2023/07/23 07:45:53;;;;;;;43.92;20.48;;;;;;;26.15;67.51;101211.78;4959143;28;20054;-81
2023/07/23 07:48:21;;;;;;;55.55;27.38;;;;;;;26.27;67.02;101214.59;4962204;28;20061;-81
2023/07/23 07:50:57;;;;;;;58.83;29.65;;;;;;;26.15;66.51;101179.97;4964508;28;20053;-80
2023/07/23 07:53:23;;;;;;;53.90;29.27;;;;;;;25.79;66.27;101123.59;4959250;28;20057;-80
2023/07/23 07:55:50;;;;;;;53.15;26.55;;;;;;;26.04;66.98;101193.47;4957893;28;20552;-80
2023/07/23 07:58:24;;;;;;;46.38;22.88;;;;;;;25.80;67.01;101158.75;4954426;28;20109;-79
2023/07/23 08:00:59;;;;;;;51.60;26.08;;;;;;;26.25;66.77;101200.38;4957485;28;20046;-80
2023/07/23 08:03:27;;;;;;;52.72;28.15;;;;;;;26.38;67.06;101200.22;4953618;28;20054;-78
2023/07/23 08:05:56;;;;;;;38.88;20.80;;;;;;;26.23;66.52;101176.09;4937706;28;20034;-80
2023/07/23 08:08:28;;;;;;;53.88;26.17;;;;;;;26.55;66.83;101201.31;4959778;28;20227;-80
2023/07/23 08:11:02;;;;;;;53.22;28.50;;;;;;;26.70;65.79;101206.38;4974946;28;20057;-76
2023/07/23 08:13:31;;;;;;;54.47;27.43;;;;;;;26.70;65.62;101198.22;4968862;28;20247;-80
2023/07/23 08:16:02;;;;;;;49.08;25.67;;;;;;;26.55;65.67;101181.44;4968436;28;20050;-80
2023/07/23 08:18:38;;;;;;;53.17;29.52;;;;;;;26.58;65.71;101187.25;4947795;28;20057;-81
2023/07/23 08:21:15;;;;;;;45.47;28.33;;;;;;;26.23;65.87;101121.69;4918373;28;20121;-79
2023/07/23 08:23:44;;;;;;;59.13;31.17;;;;;;;26.57;65.71;101165.69;4929364;28;20153;-80
2023/07/23 08:26:14;;;;;;;48.30;25.08;;;;;;;26.62;65.24;101168.56;4949642;28;20105;-80
2023/07/23 08:28:46;;;;;;;54.47;30.00;;;;;;;26.81;65.42;101189.25;4943600;28;20062;-79
2023/07/23 08:31:20;;;;;;;50.03;27.55;;;;;;;26.69;64.94;101152.13;4954436;28;20053;-79
2023/07/23 08:33:48;;;;;;;51.25;26.50;;;;;;;26.91;64.99;101209.66;4946221;28;20415;-81
2023/07/23 08:36:16;;;;;;;54.65;30.65;;;;;;;27.05;64.34;101209.25;4958219;28;20093;-80
2023/07/23 08:38:43;;;;;;;52.90;30.02;;;;;;;26.99;64.89;101201.16;4951432;28;20050;-80
2023/07/23 08:41:22;;;;;;;44.83;26.83;;;;;;;26.98;64.50;101196.78;4949594;28;20255;-81
2023/07/23 08:44:34;;;;;;;46.08;25.80;;;;;;;27.27;64.52;101208.75;4962515;28;20042;-80
2023/07/23 08:47:12;;;;;;;45.50;24.70;;;;;;;27.29;63.82;101195.75;4933967;28;20148;-80
2023/07/23 08:49:43;;;;;;;46.40;28.55;;;;;;;27.41;63.44;101199.31;4953715;28;20411;-80
2023/07/23 08:52:12;;;;;;;;;;;;;;;27.45;64.13;101207.84;4953889;28;20050;-80
2023/07/23 08:54:41;;;;;;;48.55;30.63;;;;;;;27.53;64.23;101206.72;4952004;28;20085;-78
2023/07/23 08:57:08;;;;;;;55.17;28.38;;;;;;;27.62;63.71;101208.00;4935250;28;20050;-78
2023/07/23 08:59:36;;;;;;;54.35;28.42;;;;;;;27.78;62.64;101218.22;4952835;28;20046;-82
2023/07/23 09:02:07;;;;;;;49.92;25.77;;;;;;;27.61;63.59;101200.91;4970885;28;20073;-81
2023/07/23 09:04:37;;;;;;;58.35;28.92;;;;;;;27.85;62.88;101207.25;4946035;28;20059;-79
2023/07/23 09:07:09;;;;;;;41.67;26.00;;;;;;;27.89;62.98;101222.91;4948813;28;20046;-80
2023/07/23 09:09:36;;;;;;;;;;;;;;;27.85;62.40;101216.25;4914291;28;20055;-79
2023/07/23 09:12:06;;;;;;;46.60;23.38;;;;;;;27.23;62.47;101115.72;4933375;28;20342;-80
2023/07/23 09:14:43;;;;;;;47.17;23.30;;;;;;;27.62;62.23;101167.09;4923338;28;20492;-81
2023/07/23 09:17:18;;;;;;;44.70;25.98;;;;;;;28.11;62.06;101222.31;4942060;28;20047;-79
2023/07/23 09:19:45;;;;;;;37.22;20.80;;;;;;;28.15;61.02;101209.81;4933602;28;20051;-79
2023/07/23 09:22:11;;;;;;;43.65;23.15;;;;;;;28.31;60.64;101213.75;4915820;28;20423;-80
2023/07/23 09:24:40;;;;;;;46.10;26.70;;;;;;;28.42;58.50;101220.25;4931100;28;20117;-81
2023/07/23 09:27:11;;;;;;;42.17;23.95;;;;;;;28.55;58.81;101220.03;4924715;28;20198;-80
2023/07/23 09:29:44;;;;;;;36.88;21.77;;;;;;;28.56;58.51;101221.66;4935887;28;20055;-79
2023/07/23 09:32:25;;;;;;;37.92;20.48;;;;;;;28.41;60.03;101196.75;4902133;28;20055;-79
2023/07/23 09:34:55;;;;;;;47.30;26.23;;;;;;;28.74;59.09;101212.47;4922886;28;20055;-80
2023/07/23 09:37:29;;;;;;;38.03;21.92;;;;;;;28.67;58.35;101192.69;4916277;29;20081;-79
2023/07/23 09:39:56;;;;;;;30.65;18.67;;;;;;;28.31;55.76;101140.84;4908769;28;20228;-79
2023/07/23 09:42:29;;;;;;;39.47;21.90;;;;;;;28.98;56.19;101214.06;4898692;28;20051;-80
2023/07/23 09:45:06;;;;;;;31.95;19.25;;;;;;;28.83;56.56;101200.06;4916966;28;20047;-78
2023/07/23 09:47:33;;;;;;;33.67;18.83;;;;;;;29.01;54.38;101195.50;4914329;29;20559;-79
2023/07/23 09:50:03;;;;;;;32.78;19.33;;;;;;;29.18;54.23;101221.84;4918263;29;20145;-79
2023/07/23 09:52:37;;;;;;;28.48;17.50;;;;;;;29.17;54.35;101198.28;4932881;28;20086;-79
2023/07/23 09:55:07;;;;;;;31.50;16.33;;;;;;;29.22;53.54;101191.25;4937641;28;20106;-80
2023/07/23 09:57:38;;;;;;;25.10;15.00;;;;;;;29.05;53.38;101158.41;4944825;28;20139;-79
2023/07/23 10:00:06;;;;;;;21.33;13.65;;;;;;;29.34;52.56;101164.66;4910357;28;20533;-78
2023/07/23 10:02:38;;;;;;;28.55;15.95;;;;;;;29.53;52.16;101179.75;4915742;29;20392;-78
2023/07/23 10:05:10;;;;;;;27.38;15.38;;;;;;;29.77;50.89;101193.31;4914328;28;20483;-80
2023/07/23 10:07:39;;;;;;;24.88;14.73;;;;;;;29.48;50.98;101144.13;4958210;28;20505;-81
2023/07/23 10:10:06;;;;;;;24.73;15.13;;;;;;;29.93;50.28;101210.75;4962531;28;20629;-79
2023/07/23 10:12:37;;;;;;;24.63;14.02;;;;;;;30.02;48.70;101196.41;4957681;28;20050;-80
2023/07/23 10:15:04;;;;;;;20.80;12.40;;;;;;;30.41;50.04;101199.16;4952042;28;20372;-80
2023/07/23 10:17:39;;;;;;;21.90;12.63;;;;;;;30.26;50.28;101190.75;4933774;28;20050;-79
2023/07/23 10:20:12;;;;;;;28.08;14.68;;;;;;;30.27;47.42;101186.94;4966033;28;20384;-80
2023/07/23 10:22:40;;;;;;;22.63;13.27;;;;;;;30.06;49.01;101150.19;4946138;28;20055;-80
2023/07/23 10:25:34;;;;;;;23.23;13.63;;;;;;;30.55;48.80;101193.31;4927230;28;20065;-79
2023/07/23 10:28:09;;;;;;;23.48;13.45;;;;;;;30.65;48.86;101155.88;4951586;28;20518;-79
2023/07/23 10:30:37;;;;;;;37.40;15.38;;;;;;;30.50;47.98;101152.16;4945065;28;20714;-78
2023/07/23 10:33:10;;;;;;;25.35;13.93;;;;;;;30.55;47.72;101149.47;4949490;28;20054;-78
2023/07/23 10:35:52;;;;;;;22.58;12.40;;;;;;;30.86;47.03;101178.06;4943169;28;20487;-80
2023/07/23 10:38:27;;;;;;;26.42;13.75;;;;;;;30.83;47.03;101179.41;4919822;28;20201;-78
2023/07/23 10:40:57;;;;;;;25.05;12.40;;;;;;;30.76;48.05;101140.38;4932444;28;20434;-78
2023/07/23 10:43:41;;;;;;;23.15;11.85;;;;;;;31.02;47.60;101182.63;4921893;28;20298;-79
2023/07/23 10:46:18;;;;;;;23.98;12.05;;;;;;;31.01;47.01;101191.09;4955547;28;20074;-79
2023/07/23 10:48:51;;;;;;;21.38;13.07;;;;;;;31.14;43.69;101184.34;4932689;28;20137;-79
2023/07/23 10:51:20;;;;;;;24.58;12.57;;;;;;;31.03;45.19;101161.50;4937164;28;20130;-79
2023/07/23 10:54:07;;;;;;;28.30;13.45;;;;;;;31.45;41.93;101180.00;4949312;28;20142;-79
2023/07/23 10:56:36;;;;;;;24.80;11.50;;;;;;;31.56;44.16;101175.44;4930880;28;20320;-79
2023/07/23 10:59:13;;;;;;;25.63;13.85;;;;;;;31.58;42.95;101179.56;4940375;28;20495;-81
2023/07/23 11:01:43;;;;;;;28.80;14.13;;;;;;;31.58;42.27;101160.38;4921752;28;20055;-79
2023/07/23 11:04:25;;;;;;;27.50;12.07;;;;;;;31.58;43.21;101157.63;4920475;28;20358;-78
2023/07/23 11:07:04;;;;;;;22.70;12.45;;;;;;;31.56;42.36;101120.56;4933112;28;20050;-78
2023/07/23 11:09:33;;;;;;;29.80;13.15;;;;;;;31.68;42.76;101116.53;4961930;28;20141;-78
2023/07/23 11:12:03;;;;;;;22.65;12.63;;;;;;;32.01;43.49;101169.44;4970971;28;20140;-79
2023/07/23 11:14:38;;;;;;;22.02;12.80;;;;;;;31.93;43.63;101142.47;4981359;28;20536;-78
2023/07/23 11:17:05;;;;;;;22.85;12.20;;;;;;;32.12;42.04;101143.69;4959831;28;20053;-77
2023/07/23 11:19:34;;;;;;;26.77;13.13;;;;;;;32.33;41.71;101158.34;4967744;28;20049;-77
2023/07/23 11:22:02;;;;;;;23.83;11.55;;;;;;;32.48;42.45;101160.31;4956826;28;20439;-78